Terminal Aerodrome Forecast
Issued by NWS Omaha/Valley, NE

Home | Current Version | Previous Version | Text Only | Print | Product List | Glossary On
Versions: 1 2 3 4 5 6 7 8 9 10 11 12 13 14 15 16 17 18 19 20 21 22 23 24 25 26 27 28 29 30 31 32 33 34 35 36 37 38 39 40 41 42
000
FTUS43 KOAX 291720
TAFOMA
TAF
KOMA 291720Z 2918/3018 34008KT P6SM OVC010
      TEMPO 2918/2920 SCT008
     FM292000 06004KT P6SM SKC
      TEMPO 3010/3012 4SM BR=

USA.gov is the U.S. government's official web portal to all federal, state and local government web resources and services.